KCOU/COU METAR and TAF weather

Enter ICAO airport designator
Station Type Date Time Source
KCOU METAR 2022/08/16 19:56 UTC NOAA

KCOU 161956Z 08008KT 9SM BKN006 OVC011 21/19 A3006 RMK AO2 T02060189


Station Type Date Time Source
KCOU Decoded METAR 2022/08/16 19:56 UTC NOAA

COLUMBIA REGIONAL AIRPORT, MO, United States (KCOU) 38-49N 092-13W 271M
Aug 16, 2022 - 03:56 PM EDT / 2022.08.16 1956 UTC
Wind: from the E (080 degrees) at 9 MPH (8 KT):0
Visibility: 9 mile(s):0
Sky conditions: overcast
Temperature: 69.1 F (20.6 C)
Dew Point: 66.0 F (18.9 C)
Relative Humidity: 89%
Pressure (altimeter): 30.06 in. Hg (1017 hPa)
ob: KCOU 161956Z 08008KT 9SM BKN006 OVC011 21/19 A3006 RMK AO2 T02060189
cycle: 20

Station Type Date Time Source
KCOU TAF 2022/08/16 19:24 UTC NOAA

TAF
AMD KCOU 161923Z 1619/1718 12005KT P6SM OVC015
TEMPO 1619/1621 2SM BR OVC004
FM162100 09007KT P6SM OVC020
FM162200 09006KT P6SM BKN035
FM170200 VRB04KT P6SM BKN060
FM171500 07006KT P6SM FEW250

Example: see airport list